createdAt,value
2023-02-21T00:00:37.840Z,74.32
2023-02-21T00:03:23.764Z,74.19
2023-02-21T00:06:09.809Z,74.27
2023-02-21T00:08:56.218Z,74.74
2023-02-21T00:11:41.993Z,74.13
2023-02-21T00:14:27.941Z,74.29
2023-02-21T00:17:15.417Z,74.14
2023-02-21T00:20:01.528Z,74.27
2023-02-21T00:22:48.076Z,74.09
2023-02-21T00:25:34.364Z,74.00
2023-02-21T00:28:20.609Z,74.27
2023-02-21T00:31:06.581Z,74.23
2023-02-21T00:33:56.079Z,74.25
2023-02-21T00:36:42.052Z,74.19
2023-02-21T00:39:28.154Z,74.16
2023-02-21T00:42:14.346Z,73.80
2023-02-21T00:45:00.471Z,74.45
2023-02-21T00:47:46.632Z,73.93
2023-02-21T00:50:34.729Z,74.03
2023-02-21T00:53:20.935Z,74.11
2023-02-21T00:56:06.973Z,74.02
2023-02-21T00:58:52.851Z,73.73
2023-02-21T01:01:38.977Z,73.64
2023-02-21T01:04:25.246Z,73.97
2023-02-21T01:07:12.623Z,74.09
2023-02-21T01:09:58.627Z,74.41
2023-02-21T01:12:44.567Z,74.68
2023-02-21T01:15:30.429Z,74.65
2023-02-21T01:18:16.906Z,74.65
2023-02-21T01:21:02.966Z,74.86
2023-02-21T01:23:50.998Z,75.00
2023-02-21T01:26:37.024Z,75.31
2023-02-21T01:29:23.146Z,75.43
2023-02-21T01:32:09.518Z,75.56
2023-02-21T01:34:58.267Z,75.57
2023-02-21T01:37:44.166Z,75.58
2023-02-21T01:40:35.112Z,75.74
2023-02-21T01:43:21.855Z,75.72
2023-02-21T01:46:12.458Z,75.74
2023-02-21T01:48:58.949Z,75.63
2023-02-21T01:51:54.270Z,75.93
2023-02-21T01:54:42.579Z,76.15
2023-02-21T01:57:31.532Z,76.09
2023-02-21T02:00:24.353Z,76.02
2023-02-21T02:03:18.204Z,76.13
2023-02-21T02:06:08.910Z,76.24
2023-02-21T02:08:56.298Z,76.48
2023-02-21T02:12:16.595Z,76.38
2023-02-21T02:15:27.660Z,76.57
2023-02-21T02:18:36.606Z,76.47
2023-02-21T02:22:09.553Z,76.39
2023-02-21T02:25:06.866Z,76.56
2023-02-21T02:28:23.691Z,76.72
2023-02-21T02:31:43.744Z,76.72
2023-02-21T02:35:00.259Z,76.73
2023-02-21T02:37:37.196Z,76.75
2023-02-21T02:40:20.225Z,76.82
2023-02-21T02:43:08.995Z,76.67
2023-02-21T02:45:46.416Z,76.78
2023-02-21T02:48:21.304Z,76.63
2023-02-21T02:50:53.705Z,76.66
2023-02-21T02:53:27.359Z,76.79
2023-02-21T02:56:00.901Z,76.78
2023-02-21T02:58:35.519Z,76.77
2023-02-21T03:01:28.588Z,76.75
2023-02-21T03:04:16.220Z,76.60
2023-02-21T03:07:02.229Z,76.55
2023-02-21T03:09:44.641Z,76.78
2023-02-21T03:12:27.052Z,76.74
2023-02-21T03:15:04.545Z,76.72
2023-02-21T03:17:41.612Z,76.67
2023-02-21T03:20:14.259Z,76.63
2023-02-21T03:22:47.808Z,76.58
2023-02-21T03:25:18.844Z,76.47
2023-02-21T03:27:50.865Z,76.51
2023-02-21T03:30:24.647Z,76.69
2023-02-21T03:32:56.404Z,76.62
2023-02-21T03:35:31.375Z,76.57
2023-02-21T03:38:02.242Z,76.70
2023-02-21T03:40:34.871Z,76.73
2023-02-21T03:43:07.999Z,76.77
2023-02-21T03:45:45.855Z,76.77
2023-02-21T03:48:31.111Z,76.89
2023-02-21T03:51:06.909Z,76.94
2023-02-21T03:53:41.883Z,77.05
2023-02-21T03:56:14.207Z,76.97
2023-02-21T03:59:03.364Z,77.13
2023-02-21T04:01:32.789Z,77.05
2023-02-21T04:04:03.358Z,77.18
2023-02-21T04:06:32.519Z,76.95
2023-02-21T04:09:03.150Z,76.82
2023-02-21T04:11:33.467Z,76.77
2023-02-21T04:14:04.524Z,76.95
2023-02-21T04:16:33.563Z,77.05
2023-02-21T04:19:03.587Z,77.05
2023-02-21T04:21:32.594Z,77.01
2023-02-21T04:24:03.839Z,77.19
2023-02-21T04:26:36.992Z,77.19
2023-02-21T04:29:11.572Z,77.12
2023-02-21T04:31:41.086Z,77.08
2023-02-21T04:34:17.092Z,77.14
2023-02-21T04:36:47.149Z,77.18
2023-02-21T04:39:17.404Z,77.13
2023-02-21T04:41:46.263Z,77.25
2023-02-21T04:44:29.884Z,77.26
2023-02-21T04:47:00.791Z,77.28
2023-02-21T04:49:29.427Z,77.39
2023-02-21T04:51:58.048Z,77.11
2023-02-21T04:54:28.165Z,77.03
2023-02-21T04:56:56.983Z,77.01
2023-02-21T04:59:25.896Z,77.05
2023-02-21T05:01:54.551Z,76.89
2023-02-21T05:04:28.618Z,76.75
2023-02-21T05:06:57.262Z,76.96
2023-02-21T05:09:27.321Z,76.79
2023-02-21T05:11:55.974Z,76.84
2023-02-21T05:14:24.863Z,76.93
2023-02-21T05:16:53.634Z,76.95
2023-02-21T05:19:28.362Z,77.08
2023-02-21T05:22:01.620Z,77.00
2023-02-21T05:24:32.621Z,77.20
2023-02-21T05:27:01.795Z,77.28
2023-02-21T05:29:32.079Z,76.97
2023-02-21T05:32:01.540Z,77.25
2023-02-21T05:34:30.863Z,77.29
2023-02-21T05:37:00.264Z,77.42
2023-02-21T05:39:31.542Z,77.36
2023-02-21T05:42:02.530Z,77.40
2023-02-21T05:44:33.301Z,77.13
2023-02-21T05:47:03.565Z,76.98
2023-02-21T05:49:32.142Z,76.81
2023-02-21T05:52:06.622Z,76.69
2023-02-21T05:54:55.929Z,76.73
2023-02-21T05:57:25.840Z,76.57
2023-02-21T05:59:54.870Z,76.70
2023-02-21T06:02:30.019Z,76.53
2023-02-21T06:05:03.352Z,76.32
2023-02-21T06:07:34.219Z,76.28
2023-02-21T06:10:04.918Z,76.19
2023-02-21T06:12:34.012Z,75.94
2023-02-21T06:15:07.370Z,75.66
2023-02-21T06:17:41.013Z,75.63
2023-02-21T06:20:14.295Z,75.73
2023-02-21T06:22:43.223Z,75.17
2023-02-21T06:25:15.519Z,75.12
2023-02-21T06:27:46.747Z,75.11
2023-02-21T06:30:17.787Z,74.80
2023-02-21T06:32:51.943Z,74.78
2023-02-21T06:35:24.265Z,74.84
2023-02-21T06:37:56.313Z,74.56
2023-02-21T06:40:26.396Z,74.40
2023-02-21T06:42:55.039Z,74.26
2023-02-21T06:45:23.660Z,74.25
2023-02-21T06:47:52.365Z,74.32
2023-02-21T06:50:21.292Z,73.89
2023-02-21T06:52:50.259Z,73.80
2023-02-21T06:55:26.002Z,73.77
2023-02-21T06:57:54.699Z,73.85
2023-02-21T07:00:23.841Z,73.86
2023-02-21T07:02:52.638Z,73.57
2023-02-21T07:05:21.660Z,73.75
2023-02-21T07:07:50.380Z,73.73
2023-02-21T07:10:19.402Z,73.57
2023-02-21T07:12:49.791Z,73.42
2023-02-21T07:15:18.496Z,73.22
2023-02-21T07:17:47.294Z,73.09
2023-02-21T07:20:16.137Z,73.03
2023-02-21T07:22:45.434Z,72.86
2023-02-21T07:25:21.317Z,72.98
2023-02-21T07:27:52.841Z,73.06
2023-02-21T07:30:21.918Z,72.84
2023-02-21T07:32:50.761Z,72.46
2023-02-21T07:35:19.813Z,72.46
2023-02-21T07:37:48.416Z,72.37
2023-02-21T07:40:17.503Z,72.53
2023-02-21T07:42:48.056Z,72.69
2023-02-21T07:45:24.803Z,72.30
2023-02-21T07:47:53.641Z,72.30
2023-02-21T07:50:31.699Z,71.93
2023-02-21T07:53:01.324Z,72.05
2023-02-21T07:55:47.870Z,71.74
2023-02-21T07:58:19.707Z,71.77
2023-02-21T08:00:53.942Z,71.66
2023-02-21T08:03:27.296Z,71.44
2023-02-21T08:05:56.029Z,71.37
2023-02-21T08:08:26.114Z,71.45
2023-02-21T08:10:54.910Z,71.59
2023-02-21T08:13:25.655Z,71.53
2023-02-21T08:15:56.310Z,71.56
2023-02-21T08:18:26.426Z,71.67
2023-02-21T08:20:58.473Z,71.17
2023-02-21T08:23:28.302Z,71.01
2023-02-21T08:26:13.207Z,71.06
2023-02-21T08:28:45.191Z,70.96
2023-02-21T08:31:16.189Z,70.81
2023-02-21T08:33:48.414Z,70.99
2023-02-21T08:36:17.120Z,70.71
2023-02-21T08:38:45.876Z,69.70
2023-02-21T08:41:16.280Z,69.75
2023-02-21T08:43:45.053Z,69.91
2023-02-21T08:46:17.137Z,70.14
2023-02-21T08:48:48.980Z,70.06
2023-02-21T08:51:18.295Z,69.70
2023-02-21T08:53:47.306Z,69.91
2023-02-21T08:56:23.805Z,69.56
2023-02-21T08:58:55.180Z,69.62
2023-02-21T09:01:36.614Z,69.70
2023-02-21T09:04:06.745Z,69.45
2023-02-21T09:06:35.641Z,69.38
2023-02-21T09:09:04.714Z,69.23
2023-02-21T09:11:33.968Z,69.20
2023-02-21T09:14:08.484Z,69.21
2023-02-21T09:16:42.052Z,68.88
2023-02-21T09:19:14.071Z,68.99
2023-02-21T09:21:48.233Z,68.87
2023-02-21T09:24:17.710Z,68.67
2023-02-21T09:26:49.689Z,68.93
2023-02-21T09:29:19.554Z,68.72
2023-02-21T09:31:55.230Z,68.56
2023-02-21T09:34:25.379Z,68.60
2023-02-21T09:36:55.090Z,68.74
2023-02-21T09:39:25.268Z,68.30
2023-02-21T09:41:57.448Z,68.03
2023-02-21T09:44:30.533Z,68.05
2023-02-21T09:47:06.524Z,68.13
2023-02-21T09:49:39.247Z,68.17
2023-02-21T09:52:23.824Z,67.92
2023-02-21T09:54:59.372Z,68.09
2023-02-21T09:57:28.304Z,67.68
2023-02-21T09:59:57.097Z,67.63
2023-02-21T10:02:46.829Z,67.65
2023-02-21T10:05:27.275Z,67.33
2023-02-21T10:08:06.272Z,67.41
2023-02-21T10:10:45.029Z,66.96
2023-02-21T10:13:32.550Z,67.05
2023-02-21T10:16:09.800Z,67.22
2023-02-21T10:18:48.499Z,67.16
2023-02-21T10:21:26.713Z,66.91
2023-02-21T10:23:59.609Z,66.43
2023-02-21T10:26:32.689Z,66.21
2023-02-21T10:29:04.390Z,66.03
2023-02-21T10:31:37.692Z,66.28
2023-02-21T10:34:24.398Z,65.43
2023-02-21T10:36:55.228Z,65.72
2023-02-21T10:39:34.178Z,65.95
2023-02-21T10:42:03.288Z,65.56
2023-02-21T10:44:37.198Z,65.41
2023-02-21T10:47:20.844Z,65.59
2023-02-21T10:50:01.878Z,65.29
2023-02-21T10:52:38.986Z,65.05
2023-02-21T10:55:32.341Z,64.54
2023-02-21T10:58:11.098Z,64.50
2023-02-21T11:00:47.977Z,64.99
2023-02-21T11:03:27.413Z,64.65
2023-02-21T11:05:59.854Z,64.77
2023-02-21T11:08:54.699Z,64.26
2023-02-21T11:11:39.693Z,64.34
2023-02-21T11:14:41.019Z,64.47
2023-02-21T11:17:20.065Z,64.53
2023-02-21T11:19:55.519Z,64.34
2023-02-21T11:22:37.126Z,64.03
2023-02-21T11:25:18.984Z,64.15
2023-02-21T11:28:05.619Z,64.50
2023-02-21T11:30:38.076Z,65.03
2023-02-21T11:33:10.184Z,64.66
2023-02-21T11:35:48.089Z,63.96
2023-02-21T11:41:24.690Z,63.80
2023-02-21T11:43:55.268Z,64.08
2023-02-21T11:46:41.483Z,63.52
2023-02-21T11:49:26.137Z,63.64
2023-02-21T11:52:01.200Z,63.60
2023-02-21T11:54:32.522Z,63.37
2023-02-21T11:57:11.646Z,63.89
2023-02-21T11:59:51.148Z,63.94
2023-02-21T12:03:04.186Z,63.30
2023-02-21T12:05:55.089Z,63.07
2023-02-21T12:08:44.203Z,63.16
2023-02-21T12:11:31.791Z,63.32
2023-02-21T12:14:24.554Z,63.29
2023-02-21T12:17:14.955Z,63.27
2023-02-21T12:20:27.325Z,63.57
2023-02-21T12:23:20.450Z,62.85
2023-02-21T12:26:28.774Z,63.52
2023-02-21T12:29:36.739Z,63.14
2023-02-21T12:32:47.175Z,63.39
2023-02-21T12:36:21.220Z,63.20
2023-02-21T12:39:12.356Z,63.09
2023-02-21T12:42:12.281Z,63.18
2023-02-21T12:45:03.785Z,62.77
2023-02-21T12:47:43.005Z,62.81
2023-02-21T12:50:22.781Z,62.65
2023-02-21T12:53:03.371Z,62.67
2023-02-21T12:55:39.882Z,62.46
2023-02-21T12:58:21.082Z,62.30
2023-02-21T13:01:26.535Z,62.03
2023-02-21T13:04:09.412Z,62.57
2023-02-21T13:06:47.338Z,62.29
2023-02-21T13:09:30.041Z,62.50
2023-02-21T13:12:07.561Z,62.35
2023-02-21T13:14:46.860Z,62.16
2023-02-21T13:17:20.897Z,62.32
2023-02-21T13:19:56.030Z,62.62
2023-02-21T13:23:38.230Z,62.94
2023-02-21T13:26:43.158Z,62.29
2023-02-21T13:29:22.005Z,62.45
2023-02-21T13:32:03.744Z,62.81
2023-02-21T13:34:45.261Z,62.73
2023-02-21T13:37:21.380Z,62.69
2023-02-21T13:39:58.873Z,62.94
2023-02-21T13:42:31.104Z,63.02
2023-02-21T13:45:22.207Z,63.14
2023-02-21T13:48:29.717Z,63.00
2023-02-21T13:51:05.154Z,62.83
2023-02-21T13:53:58.626Z,62.93
2023-02-21T13:56:45.668Z,63.46
2023-02-21T13:59:54.688Z,63.47
2023-02-21T14:02:32.987Z,63.47
2023-02-21T14:05:08.159Z,63.47
2023-02-21T14:08:03.969Z,64.05
2023-02-21T14:10:41.594Z,64.07
2023-02-21T14:13:24.730Z,64.17
2023-02-21T14:16:02.484Z,64.55
2023-02-21T14:18:43.750Z,64.71
2023-02-21T14:21:18.659Z,64.66
2023-02-21T14:23:55.024Z,64.90
2023-02-21T14:26:44.144Z,65.04
2023-02-21T14:29:33.712Z,65.11
2023-02-21T14:32:42.568Z,65.27
2023-02-21T14:35:35.096Z,65.40
2023-02-21T14:38:08.860Z,65.75
2023-02-21T14:41:03.002Z,65.98
2023-02-21T14:43:59.549Z,66.19
2023-02-21T14:46:54.748Z,66.63
2023-02-21T14:50:27.853Z,67.45
2023-02-21T14:53:49.434Z,67.67
2023-02-21T14:57:02.786Z,67.82
2023-02-21T14:59:56.341Z,68.30
2023-02-21T15:02:38.354Z,68.60
2023-02-21T15:05:19.344Z,69.06
2023-02-21T15:08:04.330Z,69.38
2023-02-21T15:10:41.363Z,69.56
2023-02-21T15:13:26.649Z,69.70
2023-02-21T15:16:14.480Z,69.95
2023-02-21T15:19:01.919Z,69.96
2023-02-21T15:21:33.572Z,70.41
2023-02-21T15:24:07.974Z,70.74
2023-02-21T15:26:44.736Z,70.74
2023-02-21T15:29:22.174Z,71.22
2023-02-21T15:31:58.399Z,71.33
2023-02-21T15:34:32.521Z,71.43
2023-02-21T15:37:33.643Z,71.68
2023-02-21T15:40:12.295Z,72.32
2023-02-21T15:42:51.135Z,72.20
2023-02-21T15:45:35.211Z,72.45
2023-02-21T15:48:06.427Z,72.63
2023-02-21T15:50:53.581Z,72.71
2023-02-21T15:53:25.452Z,73.17
2023-02-21T15:55:54.997Z,73.31
2023-02-21T15:58:44.110Z,73.45
2023-02-21T16:01:14.880Z,73.55
2023-02-21T16:03:49.667Z,73.68
2023-02-21T16:06:28.941Z,73.84
2023-02-21T16:09:09.080Z,74.10
2023-02-21T16:11:49.760Z,74.42
2023-02-21T16:14:26.550Z,74.39
2023-02-21T16:17:23.499Z,74.35
2023-02-21T16:19:56.895Z,74.70
2023-02-21T16:22:43.147Z,75.14
2023-02-21T16:25:25.267Z,75.38
2023-02-21T16:27:57.124Z,75.48
2023-02-21T16:30:28.886Z,75.59
2023-02-21T16:33:04.680Z,75.68
2023-02-21T16:35:35.159Z,75.65
2023-02-21T16:38:03.911Z,75.65
2023-02-21T16:40:35.247Z,75.99
2023-02-21T16:43:06.297Z,75.68
2023-02-21T16:45:35.311Z,76.16
2023-02-21T16:48:09.221Z,76.38
2023-02-21T16:50:40.552Z,76.33
2023-02-21T16:53:13.702Z,76.27
2023-02-21T16:55:43.831Z,76.31
2023-02-21T16:58:26.460Z,76.26
2023-02-21T17:00:59.116Z,76.34
2023-02-21T17:03:29.870Z,76.31
2023-02-21T17:06:01.983Z,76.71
2023-02-21T17:08:33.347Z,76.70
2023-02-21T17:11:02.001Z,76.55
2023-02-21T17:13:30.708Z,77.29
2023-02-21T17:15:59.615Z,77.45
2023-02-21T17:18:31.514Z,77.26
2023-02-21T17:21:00.317Z,77.34
2023-02-21T17:23:29.930Z,77.45
2023-02-21T17:26:04.328Z,77.85
2023-02-21T17:28:37.826Z,77.89
2023-02-21T17:31:06.731Z,78.14
2023-02-21T17:33:37.106Z,78.23
2023-02-21T17:36:06.446Z,78.50
2023-02-21T17:38:35.188Z,78.42
2023-02-21T17:41:05.245Z,78.29
2023-02-21T17:43:34.144Z,78.11
2023-02-21T17:46:02.924Z,78.28
2023-02-21T17:48:31.663Z,78.20
2023-02-21T17:51:01.825Z,78.18
2023-02-21T17:53:30.525Z,78.13
2023-02-21T17:56:00.146Z,78.41
2023-02-21T17:58:30.716Z,78.53
2023-02-21T18:01:02.840Z,78.52
2023-02-21T18:03:31.838Z,78.53
2023-02-21T18:06:01.986Z,78.73
2023-02-21T18:08:30.649Z,78.64
2023-02-21T18:10:59.389Z,78.76
2023-02-21T18:13:28.379Z,78.81
2023-02-21T18:15:59.671Z,78.81
2023-02-21T18:18:28.390Z,78.88
2023-02-21T18:20:59.793Z,78.81
2023-02-21T18:23:30.237Z,79.06
2023-02-21T18:25:59.937Z,78.78
2023-02-21T18:28:33.166Z,78.91
2023-02-21T18:31:04.783Z,78.96
2023-02-21T18:33:34.346Z,79.15
2023-02-21T18:36:11.638Z,79.19
2023-02-21T18:38:43.613Z,79.19
2023-02-21T18:41:14.664Z,79.11
2023-02-21T18:43:44.597Z,79.35
2023-02-21T18:46:38.559Z,79.20
2023-02-21T18:49:08.651Z,79.43
2023-02-21T18:51:38.308Z,79.76
2023-02-21T18:54:08.991Z,79.78
2023-02-21T18:56:40.705Z,79.85
2023-02-21T18:59:10.890Z,80.00
2023-02-21T19:01:39.552Z,79.79
2023-02-21T19:04:08.250Z,79.45
2023-02-21T19:06:40.925Z,79.50
2023-02-21T19:09:12.178Z,79.71
2023-02-21T19:11:41.139Z,79.47
2023-02-21T19:14:10.130Z,79.90
2023-02-21T19:16:46.773Z,79.72
2023-02-21T19:19:15.608Z,79.89
2023-02-21T19:21:45.800Z,79.75
2023-02-21T19:24:16.056Z,79.81
2023-02-21T19:26:44.807Z,80.17
2023-02-21T19:29:13.770Z,80.11
2023-02-21T19:31:42.873Z,80.21
2023-02-21T19:34:12.023Z,79.92
2023-02-21T19:36:41.096Z,80.30
2023-02-21T19:39:14.059Z,80.24
2023-02-21T19:41:44.206Z,80.13
2023-02-21T19:44:12.923Z,80.13
2023-02-21T19:46:41.595Z,80.08
2023-02-21T19:49:17.808Z,80.05
2023-02-21T19:51:49.068Z,80.01
2023-02-21T19:54:21.315Z,80.26
2023-02-21T19:56:51.914Z,80.21
2023-02-21T19:59:20.673Z,80.15
2023-02-21T20:01:51.447Z,79.89
2023-02-21T20:04:21.361Z,80.02
2023-02-21T20:06:52.909Z,79.62
2023-02-21T20:09:21.751Z,79.64
2023-02-21T20:11:51.805Z,79.69
2023-02-21T20:14:20.585Z,79.70
2023-02-21T20:16:49.394Z,79.32
2023-02-21T20:19:18.029Z,79.30
2023-02-21T20:21:46.969Z,79.18
2023-02-21T20:24:15.923Z,79.22
2023-02-21T20:26:44.594Z,79.09
2023-02-21T20:29:14.638Z,79.19
2023-02-21T20:31:43.271Z,79.12
2023-02-21T20:34:12.458Z,79.19
2023-02-21T20:36:43.328Z,79.14
2023-02-21T20:39:22.405Z,78.84
2023-02-21T20:41:51.119Z,78.89
2023-02-21T20:44:24.091Z,78.85
2023-02-21T20:46:53.983Z,78.98
2023-02-21T20:49:22.724Z,78.98
2023-02-21T20:51:51.492Z,79.08
2023-02-21T20:54:22.320Z,79.15
2023-02-21T20:56:53.849Z,79.24
2023-02-21T20:59:29.010Z,78.95
2023-02-21T21:02:00.010Z,78.97
2023-02-21T21:04:32.282Z,78.88
2023-02-21T21:07:04.303Z,78.77
2023-02-21T21:09:35.161Z,78.77
2023-02-21T21:12:07.419Z,78.82
2023-02-21T21:14:43.095Z,78.80
2023-02-21T21:17:15.173Z,78.95
2023-02-21T21:19:46.739Z,79.27
2023-02-21T21:22:18.483Z,79.13
2023-02-21T21:24:47.563Z,78.98
2023-02-21T21:27:17.633Z,78.92
2023-02-21T21:29:48.672Z,78.98
2023-02-21T21:32:21.799Z,78.91
2023-02-21T21:34:53.792Z,79.14
2023-02-21T21:37:26.623Z,78.97
2023-02-21T21:39:56.664Z,78.99
2023-02-21T21:42:29.103Z,79.04
2023-02-21T21:44:59.306Z,79.11
2023-02-21T21:47:31.998Z,79.15
2023-02-21T21:50:02.544Z,79.28
2023-02-21T21:52:33.171Z,79.18
2023-02-21T21:55:02.368Z,79.20
2023-02-21T21:57:33.087Z,79.33
2023-02-21T22:00:05.772Z,79.19
2023-02-21T22:02:38.203Z,79.14
2023-02-21T22:05:07.149Z,79.22
2023-02-21T22:07:35.750Z,79.15
2023-02-21T22:10:07.180Z,79.21
2023-02-21T22:12:35.751Z,79.04
2023-02-21T22:15:10.550Z,78.98
2023-02-21T22:17:41.209Z,78.89
2023-02-21T22:20:17.675Z,78.66
2023-02-21T22:22:50.128Z,78.65
2023-02-21T22:25:21.210Z,78.59
2023-02-21T22:27:50.360Z,78.65
2023-02-21T22:30:22.890Z,78.71
2023-02-21T22:32:51.857Z,78.75
2023-02-21T22:35:21.816Z,78.72
2023-02-21T22:37:53.875Z,78.61
2023-02-21T22:40:25.900Z,78.20
2023-02-21T22:42:55.650Z,77.90
2023-02-21T22:45:26.515Z,77.82
2023-02-21T22:47:57.738Z,77.62
2023-02-21T22:50:27.410Z,77.55
2023-02-21T22:52:58.935Z,77.31
2023-02-21T22:55:29.750Z,77.42
2023-02-21T22:58:01.280Z,77.02
2023-02-21T23:00:34.409Z,77.00
2023-02-21T23:03:12.861Z,76.90
2023-02-21T23:05:43.799Z,76.96
2023-02-21T23:08:14.687Z,76.79
2023-02-21T23:10:44.255Z,76.82
2023-02-21T23:13:16.294Z,76.77
2023-02-21T23:15:47.419Z,76.73
2023-02-21T23:18:21.372Z,76.63
2023-02-21T23:20:53.806Z,76.70
2023-02-21T23:23:25.990Z,76.71
2023-02-21T23:25:58.956Z,76.66
2023-02-21T23:28:30.585Z,76.49
2023-02-21T23:31:00.647Z,76.48
2023-02-21T23:33:34.108Z,76.33
2023-02-21T23:36:04.812Z,76.25
2023-02-21T23:38:38.443Z,75.68
2023-02-21T23:41:09.095Z,75.11
2023-02-21T23:43:40.082Z,75.12
2023-02-21T23:46:10.611Z,75.09
2023-02-21T23:48:39.321Z,75.27
2023-02-21T23:51:08.289Z,75.31
2023-02-21T23:53:36.991Z,75.41
2023-02-21T23:56:06.386Z,75.41
2023-02-21T23:58:35.066Z,75.39
